Home / Local Weather & Traffic / California / Grapevine Past Weather

Grapevine, CA Past Weather

Last 30 Days

 
High: 58ºf @12:13 AM    Low: 58ºf @12:13 AM     Approx. Precipitation / Rain Total: in.
Time (PST)Temp. (ºf)Humidity (%)Dew Point (ºf)Barometer (inHG)Wind Speed (mph)Wind DirectionWind Gust (mph)1hr. Precip / Rain Total (in.)Snow Depth
12:13 AM585-12.54-5.21sse6.95--
High: 63ºf @2:13 PM    Low: 51ºf @7:13 AM     Approx. Precipitation / Rain Total: in.
Time (PST)Temp. (ºf)Humidity (%)Dew Point (ºf)Barometer (inHG)Wind Speed (mph)Wind DirectionWind Gust (mph)1hr. Precip / Rain Total (in.)Snow Depth
11:13 PM585-12.54-5.21sse6.95--
10:13 PM574-17.62-5.21sse8.69--
9:13 PM574-17.62-6.08sse7.82--
8:13 PM573-23.11-6.08sse8.69--
7:13 PM583-22.43-5.21sse8.69--
6:13 PM583-22.43-5.21se6.95--
5:13 PM573-23.11-4.34sse9.56--
4:13 PM604-15.53-6.08sse10.43--
3:13 PM634-13.44-6.95sse13.03--
2:13 PM632-26.69-9.56sse15.64--
1:13 PM622-27.33-12.17sse18.25--
12:13 PM613-20.4-14.77sse21.72--
10:13 AM594-16.23-13.9sse19.12--
9:13 AM574-17.62-13.9sse19.12--
8:13 AM555-14.68-13.9sse18.25--
7:13 AM515-17.54-12.17sse16.51--
5:13 AM525-16.82-11.3sse16.51--
4:13 AM535-16.11-11.3sse14.77--
3:13 AM525-16.82-6.95sse10.43--
2:13 AM544-19.71-6.08sse9.56--
1:13 AM544-19.71-6.95sse8.69--
12:13 AM544-19.71-7.82sse12.17--
High: 61ºf @2:13 PM    Low: 49ºf @2:13 AM     Approx. Precipitation / Rain Total: in.
Time (PST)Temp. (ºf)Humidity (%)Dew Point (ºf)Barometer (inHG)Wind Speed (mph)Wind DirectionWind Gust (mph)1hr. Precip / Rain Total (in.)Snow Depth
11:13 PM544-19.71-7.82se11.3--
9:13 PM545-15.39-8.69se12.17--
8:13 PM545-15.39-6.95se8.69--
7:13 PM537-9.43-3.48se9.56--
6:13 PM555-14.68-7.82se10.43--
3:13 PM605-11.11-12.17s19.12--
2:13 PM615-10.4-13.03s22.59--
1:13 PM615-10.4-13.9sse22.59--
12:13 PM605-11.11-16.51s22.59--
11:13 AM596-8.15-14.77sse20.86--
10:13 AM586-8.88-16.51sse24.33--
9:13 AM557-7.94-19.12sse24.33--
8:13 AM538-6.71-14.77se18.25--
7:13 AM508-8.97-14.77se19.99--
6:13 AM508-8.97-16.51se19.99--
5:13 AM508-8.97-13.9se21.72--
4:13 AM518-8.21-17.38se21.72--
2:13 AM499-7.33-17.38sse19.99--
1:13 AM509-6.56-14.77se21.72--
12:13 AM5010-4.39-15.64sse27.81--
High: 58ºf @1:13 PM    Low: 48ºf @5:13 AM     Approx. Precipitation / Rain Total: in.
Time (PST)Temp. (ºf)Humidity (%)Dew Point (ºf)Barometer (inHG)Wind Speed (mph)Wind DirectionWind Gust (mph)1hr. Precip / Rain Total (in.)Snow Depth
11:13 PM4910-5.16-16.51sse21.72--
10:13 PM4911-3.18-15.64sse21.72--
9:13 PM5010-4.39-14.77sse21.72--
8:13 PM5110-3.62-12.17sse19.99--
7:13 PM539-4.28-13.03se19.12--
5:13 PM539-4.28-10.43se19.12--
4:13 PM548-5.96-13.03sse23.46--
3:13 PM568-4.46-11.3sse17.38--
2:13 PM578-3.71-11.3sse24.33--
1:13 PM588-2.96-18.25se29.55--
11:13 AM569-2-15.64sse25.2--
9:13 AM5311-0.07-13.9s22.59--
8:13 AM5012-0.57-12.17sse17.38--
6:13 AM4912-1.36-13.03sse21.72--
5:13 AM4813-0.46-13.9sse20.86--
4:13 AM4813-0.46-11.3sse21.72--
3:13 AM4912-1.36-19.12se29.55--
1:13 AM4912-1.36-21.72se28.68--
12:13 AM51120.21-22.59se32.15--
High: 58ºf @1:13 PM    Low: 51ºf @11:13 PM     Approx. Precipitation / Rain Total: in.
Time (PST)Temp. (ºf)Humidity (%)Dew Point (ºf)Barometer (inHG)Wind Speed (mph)Wind DirectionWind Gust (mph)1hr. Precip / Rain Total (in.)Snow Depth
11:13 PM51120.21-14.77se23.46--
10:13 PM51120.21-15.64se25.2--
9:13 PM5111-1.63-15.64se22.59--
8:13 PM51120.21-15.64se23.46--
5:13 PM52121-13.9sse18.25--
4:13 PM55123.35-13.9sse22.59--
3:13 PM56112.26-16.51sse24.33--
2:13 PM57113.04-18.25sse25.2--
1:13 PM58113.81-18.25sse24.33--
12:13 PM57124.92-19.12sse26.07--
11:13 AM55123.35-18.25sse27.81--
10:13 AM56124.14-19.99sse26.94--
9:13 AM55123.35-19.12sse25.2--
8:13 AM53133.5-16.51sse23.46--
7:13 AM51143.51-17.38se20.86--
6:13 AM51143.51-15.64se19.99--
5:13 AM52132.71-13.9sse18.25--
4:13 AM53133.5-13.03se16.51--
3:13 AM53133.5-11.3se14.77--
2:13 AM54134.29-9.56se13.03--
1:13 AM53133.5-7.82se13.03--
12:13 AM54122.57-5.21sse7.82--
High: 62ºf @1:13 PM    Low: 49ºf @12:13 AM     Approx. Precipitation / Rain Total: in.
Time (PST)Temp. (ºf)Humidity (%)Dew Point (ºf)Barometer (inHG)Wind Speed (mph)Wind DirectionWind Gust (mph)1hr. Precip / Rain Total (in.)Snow Depth
11:13 PM53133.5-2.61se4.34--
10:13 PM53145.11---2.61--
8:13 PM53121.78-1.74sse5.21--
7:13 PM53133.5-2.61se5.21--
6:13 PM53133.5-1.74se6.08--
5:13 PM54122.57-4.34sse7.82--
4:13 PM56124.14-6.95sse13.03--
3:13 PM59114.59-9.56sse12.17--
2:13 PM60115.36-9.56sse13.9--
1:13 PM6292.55-9.56s15.64--
11:13 AM60103.3-9.56sse13.03--
10:13 AM61104.06-8.69sse14.77--
9:13 AM58113.81-9.56se13.03--
8:13 AM58125.7-5.21sse10.43--
7:13 AM53133.5-7.82se10.43--
6:13 AM52132.71-5.21s8.69--
5:13 AM53133.5-5.21se7.82--
4:13 AM5012-0.57-2.61se7.82--
3:13 AM50131.13-6.08sse8.69--
2:13 AM51120.21-5.21sse7.82--
1:13 AM5012-0.57-5.21sse8.69--
12:13 AM4912-1.36-2.61se8.69--
High: 57ºf @12:13 PM    Low: 43ºf @4:13 AM     Approx. Precipitation / Rain Total: in.
Time (PST)Temp. (ºf)Humidity (%)Dew Point (ºf)Barometer (inHG)Wind Speed (mph)Wind DirectionWind Gust (mph)1hr. Precip / Rain Total (in.)Snow Depth
11:13 PM4912-1.36-6.95sse10.43--
10:13 PM5012-0.57-6.95se13.03--
9:13 PM4812-2.15-10.43se15.64--
8:13 PM4812-2.15-12.17se16.51--
7:13 PM5011-2.4-13.03se16.51--
6:13 PM5311-0.07-6.08ese11.3--
5:13 PM5011-2.4-8.69sse17.38--
4:13 PM5211-0.85-13.03sse19.99--
3:13 PM54110.71-14.77s19.12--
2:13 PM55123.35-11.3sse16.51--
1:13 PM55123.35-13.9s19.12--
12:13 PM57124.92-11.3sse16.51--
11:13 AM54145.91-13.03sse19.12--
10:13 AM51155.01-13.9sse19.99--
9:13 AM49176.12-14.77se18.25--
8:13 AM47163.17-12.17se16.51--
7:13 AM46162.36-11.3se16.51--
6:13 AM46196.08-10.43se16.51--
5:13 AM44205.54-11.3se14.77--
4:13 AM43215.77-10.43sse16.51--
3:13 AM44216.61-12.17se19.12--
1:13 AM45206.37-13.9sse20.86--
12:13 AM46207.21-14.77sse23.46--
High: 53ºf @1:13 PM    Low: 41ºf @12:13 AM     Approx. Precipitation / Rain Total: in.
Time (PST)Temp. (ºf)Humidity (%)Dew Point (ºf)Barometer (inHG)Wind Speed (mph)Wind DirectionWind Gust (mph)1hr. Precip / Rain Total (in.)Snow Depth
9:13 PM48208.87-13.9se18.25--
7:13 PM47196.91-13.9sse20.86--
5:13 PM48163.98-12.17sse17.38--
4:13 PM50142.71-13.9sse20.86--
3:13 PM51131.92-15.64s22.59--
2:13 PM52121-17.38s21.72--
1:13 PM53121.78-15.64s22.59--
11:13 AM51131.92-17.38sse26.07--
10:13 AM50131.13-18.25sse24.33--
9:13 AM48141.11-17.38sse23.46--
7:13 AM4216-0.89-14.77sse21.72--
3:13 AM4314-2.89-7.82se11.3--
2:13 AM4215-2.25-5.21sse9.56--
12:13 AM4114-4.49-6.95sse12.17--
High: 48ºf @3:13 PM    Low: 30ºf @7:13 AM     Approx. Precipitation / Rain Total: in.
Time (PST)Temp. (ºf)Humidity (%)Dew Point (ºf)Barometer (inHG)Wind Speed (mph)Wind DirectionWind Gust (mph)1hr. Precip / Rain Total (in.)Snow Depth
11:13 PM4014-5.3-6.95sse11.3--
10:13 PM3914-6.1-7.82sse13.03--
9:13 PM4012-8.45-11.3sse14.77--
8:13 PM4011-10.21-9.56sse16.51--
7:13 PM4110-11.35-9.56se15.64--
5:13 PM4310-9.8-12.17se20.86--
3:13 PM488-10.47-15.64se24.33--
12:13 PM45172.85-14.77sse25.2--
11:13 AM42203.88-14.77sse23.46--
9:13 AM39201.37-14.77sse25.2--
7:13 AM30291.64-13.03se18.25--
6:13 AM3223-1.56-12.17sse15.64--
5:13 AM3323-0.71-6.95sse10.43--
2:13 AM33240.19-10.43se25.2--
1:13 AM35220.05-15.64se26.07--
12:13 AM3420-2.8-14.77se21.72--
High: 45ºf @1:13 PM    Low: 31ºf @1:13 AM     Approx. Precipitation / Rain Total: in.
Time (PST)Temp. (ºf)Humidity (%)Dew Point (ºf)Barometer (inHG)Wind Speed (mph)Wind DirectionWind Gust (mph)1hr. Precip / Rain Total (in.)Snow Depth
11:13 PM3618-3.34-15.64se24.33--
10:13 PM3519-3.04-15.64se26.94--
9:13 PM3621-0.1-17.38se29.55--
8:13 PM3521-0.94-18.25se26.07--
7:13 PM3720-0.3-15.64se25.2--
6:13 PM3819-0.55-17.38se26.07--
5:13 PM39190.28-17.38se27.81--
4:13 PM4115-3.06-13.9se27.81--
1:13 PM45195.25-19.99sse32.15--
12:13 PM43248.71-22.59sse32.15--
11:13 AM413011.97-23.46sse32.15--
10:13 AM393413.04-20.86sse28.68--
9:13 AM383613.45-20.86sse28.68--
8:13 AM364014.05-19.12sse26.94--
7:13 AM344313.88-19.99sse27.81--
6:13 AM344816.4-18.25sse22.59--
5:13 AM346322.75-16.51sse21.72--
3:13 AM3210032-5.21ne6.95--
1:13 AM3110031-4.34n7.82--
High: 49ºf @3:13 AM    Low: 33ºf @10:13 PM     Approx. Precipitation / Rain Total: in.
Time (PST)Temp. (ºf)Humidity (%)Dew Point (ºf)Barometer (inHG)Wind Speed (mph)Wind DirectionWind Gust (mph)1hr. Precip / Rain Total (in.)Snow Depth
11:13 PM3310033-6.95n10.43--
10:13 PM3310033-6.95n10.43--
9:13 PM3410034-6.08n11.3--
8:13 PM3510035-7.82n9.56--
7:13 PM3510035-6.08n10.43--
6:13 PM3510035-6.08n11.3--
5:13 PM3510035-5.21n9.56--
4:13 PM3610036-4.34n7.82--
2:13 PM3610036-6.95n10.43--
1:13 PM3710037-6.95n10.43--
11:13 AM3710037-8.69n13.9--
10:13 AM417232.68-8.69n16.51--
9:13 AM474627.31-6.95n10.43--
8:13 AM436030.08-7.82n13.03--
7:13 AM454726-6.08nne12.17--
6:13 AM455027.49-6.08n10.43--
5:13 AM445026.57-6.95nne9.56--
4:13 AM464324.77-5.21n10.43--
3:13 AM493018.93-2.61nnw5.21--
2:13 AM492514.73-2.61nnw6.08--
1:13 AM492211.83-3.48nne5.21--
High: 65ºf @10:13 AM    Low: 51ºf @11:13 PM     Approx. Precipitation / Rain Total: in.
Time (PST)Temp. (ºf)Humidity (%)Dew Point (ºf)Barometer (inHG)Wind Speed (mph)Wind DirectionWind Gust (mph)1hr. Precip / Rain Total (in.)Snow Depth
11:13 PM512213.51-4.34n6.08--
10:13 PM512314.52-4.34n6.08--
9:13 PM512617.34-1.74se4.34--
7:13 PM512516.43-2.61se4.34--
6:13 PM522416.34---3.48--
5:13 PM532518.14-0.87ene4.34--
4:13 PM552418.88-4.34nne5.21--
3:13 PM562419.73-3.48nne7.82--
2:13 PM582219.38-5.21n7.82--
12:13 PM632021.31-4.34ne8.69--
11:13 AM651820.47-5.21s9.56--
10:13 AM651719.13-4.34e7.82--
9:13 AM611715.89-3.48ene5.21--
8:13 AM611817.2-1.74e4.34--
7:13 AM532921.61-1.74ese3.48--
6:13 AM552014.68-1.74nne5.21--
5:13 AM552418.88-2.61ne3.48--
4:13 AM532518.14---2.61--
3:13 AM522517.28-0.87ese3.48--
2:13 AM522719.07---3.48--
1:13 AM532013.02-0.87se2.61--
12:13 AM541912.69---3.48--
High: 66ºf @12:13 PM    Low: 48ºf @2:13 AM     Approx. Precipitation / Rain Total: in.
Time (PST)Temp. (ºf)Humidity (%)Dew Point (ºf)Barometer (inHG)Wind Speed (mph)Wind DirectionWind Gust (mph)1hr. Precip / Rain Total (in.)Snow Depth
8:13 PM53156.62-3.48nne4.34--
7:13 PM52189.83-2.61nnw5.21--
4:13 PM541912.69-4.34n7.82--
3:13 PM572016.34-4.34nnw7.82--
2:13 PM582118.3-4.34nw7.82--
12:13 PM661821.29-2.61ssw6.95--
10:13 AM651414.66-1.74ne5.21--
9:13 AM621615.31-3.48n5.21--
8:13 AM591815.57-3.48nw6.08--
7:13 AM552115.8-4.34nw5.21--
6:13 AM522214.35-3.48nnw5.21--
5:13 AM532114.13-3.48wnw5.21--
4:13 AM502414.65-3.48nnw6.08--
3:13 AM512617.34-4.34nw6.08--
2:13 AM482614.77-6.08-7.82--
1:13 AM532316.21-3.48nnw8.69--
12:13 AM532316.21-5.21nnw7.82--
High: 59ºf @2:13 PM    Low: 47ºf @4:13 AM     Approx. Precipitation / Rain Total: in.
Time (PST)Temp. (ºf)Humidity (%)Dew Point (ºf)Barometer (inHG)Wind Speed (mph)Wind DirectionWind Gust (mph)1hr. Precip / Rain Total (in.)Snow Depth
11:13 PM532518.14-6.08nw9.56--
10:13 PM483521.67-7.82nw10.43--
9:13 PM493119.7-4.34nw6.95--
8:13 PM484628.22-6.95nw9.56--
7:13 PM493623.22-6.95nw8.69--
6:13 PM523323.8-5.21sse8.69--
5:13 PM533123.19-2.61s4.34--
3:13 PM582825.09-4.34s12.17--
2:13 PM592523.23-10.43sse18.25--
12:13 PM592523.23-11.3sse19.12--
11:13 AM582320.42-15.64s22.59--
9:13 AM542317.05-16.51sse23.46--
8:13 AM512516.43-16.51sse25.2--
7:13 AM482715.63-19.12sse22.59--
6:13 AM472714.78-17.38sse20.86--
4:13 AM472714.78-13.03se17.38--
3:13 AM472714.78-13.9se16.51--
2:13 AM472815.61-10.43se12.17--
1:13 AM482715.63-11.3se14.77--
12:13 AM472916.41-12.17se17.38--
High: 54ºf @3:13 PM    Low: 42ºf @5:13 AM     Approx. Precipitation / Rain Total: in.
Time (PST)Temp. (ºf)Humidity (%)Dew Point (ºf)Barometer (inHG)Wind Speed (mph)Wind DirectionWind Gust (mph)1hr. Precip / Rain Total (in.)Snow Depth
11:13 PM472815.61-14.77se20.86--
10:13 PM482715.63-16.51se22.59--
8:13 PM492615.63-15.64se19.12--
6:13 PM492615.63-14.77sse18.25--
5:13 PM492615.63-14.77sse18.25--
4:13 PM522315.37-13.03sse20.86--
3:13 PM542317.05-13.9s22.59--
2:13 PM532619.05-15.64s23.46--
1:13 PM542720.79-17.38sse26.94--
12:13 PM542418.04-17.38sse26.07--
11:13 AM522819.92-18.25sse24.33--
10:13 AM493018.93-18.25sse22.59--
9:13 AM502919.01-13.9sse20.86--
8:13 AM473319.41-15.64sse20.86--
7:13 AM453519.01-13.9sse17.38--
6:13 AM443618.78-13.9se16.51--
5:13 AM424019.45-6.08sse7.82--
3:13 AM453619.67-9.56se11.3--
2:13 AM443820.04-6.08sse10.43--
1:13 AM443820.04-8.69sse13.9--
12:13 AM444021.25-9.56sse12.17--
High: 53ºf @1:13 PM    Low: 37ºf @12:13 AM     Approx. Precipitation / Rain Total: in.
Time (PST)Temp. (ºf)Humidity (%)Dew Point (ºf)Barometer (inHG)Wind Speed (mph)Wind DirectionWind Gust (mph)1hr. Precip / Rain Total (in.)Snow Depth
11:13 PM453720.31-8.69sse12.17--
10:13 PM463821.83-7.82se10.43--
9:13 PM435527.95-6.08sse7.82--
8:13 PM463721.2-5.21sse12.17--
7:13 PM473420.1-10.43sse14.77--
6:13 PM473520.78-12.17s19.12--
4:13 PM493018.93-14.77s21.72--
3:13 PM513121.44-13.9s17.38--
2:13 PM523021.54-14.77s19.12--
1:13 PM533324.68-13.9sse22.59--
11:13 AM513121.44-19.12sse27.81--
10:13 AM493421.87-21.72sse31.28--
9:13 AM473621.45-22.59sse31.28--
8:13 AM453820.94-20.86sse33.02--
7:13 AM444121.83-23.46sse32.15--
6:13 AM434120.93-20.86sse27.81--
5:13 AM434020.35-18.25sse25.2--
4:13 AM434120.93-16.51sse22.59--
3:13 AM434020.35-13.9se17.38--
2:13 AM424220.59-10.43sse14.77--
1:13 AM374316.61-2.61sse6.08--
12:13 AM373713.18-6.08nne7.82--
High: 52ºf @1:13 AM    Low: 34ºf @7:13 PM     Approx. Precipitation / Rain Total: in.
Time (PST)Temp. (ºf)Humidity (%)Dew Point (ºf)Barometer (inHG)Wind Speed (mph)Wind DirectionWind Gust (mph)1hr. Precip / Rain Total (in.)Snow Depth
11:13 PM40267.92-2.61nne6.08--
9:13 PM364416.23-3.48nnw6.08--
8:13 PM3410034-3.48n6.08--
7:13 PM3410034-3.48n6.08--
5:13 PM3510035-3.48nnw9.56--
4:13 PM3810038-4.34n13.03--
3:13 PM3710037-6.95n12.17--
2:13 PM3810038-5.21n13.9--
1:13 PM3610036-8.69n17.38--
12:13 PM3710037-9.56n19.12--
11:13 AM3710037-9.56n19.99--
10:13 AM398133.67-7.82n17.38--
9:13 AM4010040-6.95nw17.38--
8:13 AM3910039-6.08nw14.77--
7:13 AM4010040-12.17n18.25--
6:13 AM4310043-8.69n16.51--
5:13 AM4510045-9.56n14.77--
4:13 AM4710047-4.34n12.17--
3:13 AM4810048-7.82nne13.9--
2:13 AM476836.99-13.03n20.86--
1:13 AM523827.19-8.69nnw19.99--
High: 71ºf @11:13 AM    Low: 57ºf @11:13 PM     Approx. Precipitation / Rain Total: in.
Time (PST)Temp. (ºf)Humidity (%)Dew Point (ºf)Barometer (inHG)Wind Speed (mph)Wind DirectionWind Gust (mph)1hr. Precip / Rain Total (in.)Snow Depth
11:13 PM574133.54-3.48nnw7.82--
10:13 PM603330.82-3.48sw12.17--
9:13 PM583832.54-1.74sse8.69--
8:13 PM612524.93-5.21nne7.82--
7:13 PM602927.66-2.61ne5.21--
6:13 PM603028.48-0.87nw6.08--
5:13 PM612827.67-5.21n6.95--
4:13 PM632425.64-4.34nne6.95--
3:13 PM662327.14-3.48nnw6.95--
1:13 PM692228.57-4.34nne6.95--
12:13 PM692329.66-5.21nnw8.69--
11:13 AM712129.1-6.08s10.43--
10:13 AM702330.49-7.82s10.43--
9:13 AM702128.27-2.61nw5.21--
8:13 AM662529.17-4.34ssw8.69--
7:13 AM632728.5-2.61w10.43--
6:13 AM612726.78-6.08sse9.56--
5:13 AM622929.38-6.08sse11.3--
4:13 AM622424.8-6.08sse9.56--
3:13 AM642527.48-1.74se8.69--
2:13 AM662428.17-6.95s8.69--
1:13 AM662529.17-3.48ssw5.21--
12:13 AM662226.07-4.34n8.69--
High: 76ºf @2:13 PM    Low: 62ºf @12:13 AM     Approx. Precipitation / Rain Total: in.
Time (PST)Temp. (ºf)Humidity (%)Dew Point (ºf)Barometer (inHG)Wind Speed (mph)Wind DirectionWind Gust (mph)1hr. Precip / Rain Total (in.)Snow Depth
11:13 PM672429.02-6.08sse10.43--
10:13 PM662630.13-6.08sse8.69--
9:13 PM653133.63-3.48sse7.82--
8:13 PM643233.55-6.08sse8.69--
7:13 PM663033.67-3.48sse6.95--
4:13 PM712432.38-10.43s15.64--
3:13 PM742232.73-9.56s15.64--
2:13 PM762133.23-11.3s18.25--
1:13 PM762133.23-13.03sse19.99--
12:13 PM732231.9-13.9s20.86--
11:13 AM722332.17-13.03sse17.38--
10:13 AM702431.54-13.03sse18.25--
9:13 AM672630.98-11.3sse17.38--
8:13 AM662731.06-12.17sse18.25--
7:13 AM632930.24-9.56sse15.64--
6:13 AM632829.38-9.56sse13.03--
5:13 AM632829.38-9.56sse13.9--
3:13 AM642830.24-5.21se6.95--
2:13 AM662630.13-4.34s6.08--
1:13 AM632526.63-2.61ene5.21--
12:13 AM622727.64-3.48ne5.21--
High: 65ºf @1:13 PM    Low: 51ºf @6:13 AM     Approx. Precipitation / Rain Total: in.
Time (PST)Temp. (ºf)Humidity (%)Dew Point (ºf)Barometer (inHG)Wind Speed (mph)Wind DirectionWind Gust (mph)1hr. Precip / Rain Total (in.)Snow Depth
11:13 PM593329.94-3.48nnw6.08--
10:13 PM593329.94-3.48n5.21--
9:13 PM583731.88-5.21nne7.82--
8:13 PM565138.13-5.21n9.56--
7:13 PM556141.8-7.82n8.69--
6:13 PM567247.1-5.21nnw8.69--
5:13 PM535034.86-8.69nne10.43--
4:13 PM573932.29-8.69n9.56--
3:13 PM633937.65-4.34nnw7.82--
1:13 PM652528.32-5.21n9.56--
12:13 PM653335.19-6.08n10.43--
11:13 AM642527.48-6.95n10.43--
9:13 AM643031.94-4.34nnw10.43--
8:13 AM565941.88-5.21nnw11.3--
7:13 AM525536.34-6.08n10.43--
6:13 AM514932.52-6.95nne9.56--
5:13 AM544734.23-4.34n7.82--
4:13 AM544935.28-4.34n8.69--
3:13 AM545035.78-5.21nnw9.56--
2:13 AM545337.26-5.21nnw8.69--
1:13 AM546341.69-6.95n8.69--
12:13 AM535637.73-5.21nnw9.56--
High: 77ºf @11:13 AM    Low: 56ºf @11:13 PM     Approx. Precipitation / Rain Total: in.
Time (PST)Temp. (ºf)Humidity (%)Dew Point (ºf)Barometer (inHG)Wind Speed (mph)Wind DirectionWind Gust (mph)1hr. Precip / Rain Total (in.)Snow Depth
11:13 PM564333.82-7.82n8.69--
10:13 PM623332.57-3.48nnw5.21--
9:13 PM613835.21-3.48nnw10.43--
8:13 PM623231.8-6.95n8.69--
7:13 PM603431.55-5.21nne7.82--
6:13 PM623231.8-5.21n7.82--
5:13 PM632829.38-5.21n7.82--
4:13 PM663033.67-5.21n8.69--
3:13 PM662932.83-5.21-7.82--
2:13 PM682732.77-5.21n7.82--
12:13 PM752132.41-5.21n7.82--
11:13 AM772134.06-3.48sw10.43--
10:13 AM722433.23-6.95s12.17--
7:13 AM643031.94-7.82sse10.43--
6:13 AM623131.02-8.69sse10.43--
5:13 AM623131.02-7.82sse11.3--
4:13 AM633131.89-8.69sse11.3--
3:13 AM623131.02-7.82sse12.17--
2:13 AM623131.02-9.56sse13.03--
1:13 AM633131.89-9.56sse14.77--
12:13 AM633031.08-11.3sse14.77--
High: 72ºf @1:13 PM    Low: 62ºf @6:13 AM     Approx. Precipitation / Rain Total: in.
Time (PST)Temp. (ºf)Humidity (%)Dew Point (ºf)Barometer (inHG)Wind Speed (mph)Wind DirectionWind Gust (mph)1hr. Precip / Rain Total (in.)Snow Depth
11:13 PM633031.08-11.3sse16.51--
10:13 PM642931.11-13.03sse16.51--
9:13 PM652831.1-12.17sse16.51--
8:13 PM652931.97-10.43sse13.9--
7:13 PM652831.1-11.3sse14.77--
6:13 PM652831.1-12.17sse15.64--
5:13 PM662731.06-11.3sse16.51--
4:13 PM702431.54-12.17sse19.99--
3:13 PM712432.38-13.03sse21.72--
2:13 PM712432.38-16.51sse26.07--
1:13 PM722332.17-18.25s26.07--
12:13 PM712432.38-19.12sse26.94--
11:13 AM712432.38-19.12sse25.2--
10:13 AM702431.54-17.38sse23.46--
9:13 AM682530.86-16.51sse20.86--
8:13 AM662731.06-14.77sse19.12--
7:13 AM632930.24-13.9sse18.25--
6:13 AM622929.38-13.03sse17.38--
5:13 AM622929.38-12.17sse16.51--
2:13 AM632829.38-10.43sse14.77--
1:13 AM632930.24-9.56sse13.03--
12:13 AM642931.11-8.69sse13.03--
High: 69ºf @2:13 PM    Low: 57ºf @1:13 AM     Approx. Precipitation / Rain Total: in.
Time (PST)Temp. (ºf)Humidity (%)Dew Point (ºf)Barometer (inHG)Wind Speed (mph)Wind DirectionWind Gust (mph)1hr. Precip / Rain Total (in.)Snow Depth
11:13 PM642931.11-8.69sse13.03--
10:13 PM642830.24-10.43sse15.64--
9:13 PM632627.58-12.17sse17.38--
8:13 PM632526.63-12.17sse16.51--
7:13 PM632627.58-12.17sse17.38--
5:13 PM631818.84-13.9sse18.25--
4:13 PM671720.76-13.9s19.99--
3:13 PM682025.43-14.77s19.99--
2:13 PM691925.03-15.64s19.12--
11:13 AM682126.61-13.03sse18.25--
10:13 AM663336.07-8.69sse10.43--
9:13 AM654040.09-5.21sse6.95--
8:13 AM674041.87-3.48ne5.21--
7:13 AM634440.74-4.34nnw6.95--
6:13 AM614640.07-4.34nnw7.82--
5:13 AM615142.74-4.34nw7.82--
4:13 AM586044.19-4.34nnw7.82--
3:13 AM595944.69-3.48nnw7.82--
2:13 AM585642.39-3.48nnw7.82--
1:13 AM576344.53-6.08nw7.82--
High: 62ºf @12:13 PM    Low: 46ºf @2:13 AM     Approx. Precipitation / Rain Total: in.
Time (PST)Temp. (ºf)Humidity (%)Dew Point (ºf)Barometer (inHG)Wind Speed (mph)Wind DirectionWind Gust (mph)1hr. Precip / Rain Total (in.)Snow Depth
11:13 PM554332.92-5.21nnw10.43--
10:13 PM554433.49-5.21n9.56--
9:13 PM553829.86-6.08n10.43--
8:13 PM553024.14-6.08n13.03--
7:13 PM542619.9-6.08nnw12.17--
6:13 PM51155.01-8.69n13.03--
5:13 PM51143.51-6.95n10.43--
3:13 PM562217.71-6.08n10.43--
2:13 PM562217.71-6.95n11.3--
1:13 PM601410.69-6.08n9.56--
12:13 PM621412.28-5.21nnw8.69--
11:13 AM611817.2-4.34n7.82--
8:13 AM542114.96-6.08n7.82--
7:13 AM511910.22-6.08n9.56--
6:13 AM52144.31-6.08-8.69--
4:13 AM54134.29-4.34nnw9.56--
3:13 AM483118.83-6.08nne7.82--
2:13 AM463419.22-5.21nne8.69--
1:13 AM472613.92-6.95n8.69--
12:13 AM512213.51-4.34n7.82--
High: 62ºf @2:13 PM    Low: 43ºf @2:13 AM     Approx. Precipitation / Rain Total: in.
Time (PST)Temp. (ºf)Humidity (%)Dew Point (ºf)Barometer (inHG)Wind Speed (mph)Wind DirectionWind Gust (mph)1hr. Precip / Rain Total (in.)Snow Depth
11:13 PM492615.63-4.34nnw8.69--
10:13 PM512011.36-5.21nnw7.82--
8:13 PM52189.83-4.34n7.82--
7:13 PM522012.19-4.34nnw9.56--
6:13 PM513423.63-5.21nw8.69--
5:13 PM522719.07-4.34n6.08--
4:13 PM572319.58-0.87w6.08--
3:13 PM582421.42-3.48nw6.08--
2:13 PM622020.48-4.34w7.82--
1:13 PM601410.69-6.08s13.03--
10:13 AM531911.87-12.17sse16.51--
9:13 AM512112.46-12.17sse16.51--
8:13 AM502313.68-6.95sse9.56--
7:13 AM482614.77-1.74sse4.34--
6:13 AM442712.19-2.61sse3.48--
5:13 AM45239.46-2.61sse9.56--
4:13 AM45228.47-6.95sse12.17--
2:13 AM43226.79-10.43sse14.77--
1:13 AM44227.63-12.17sse18.25--
12:13 AM44238.61-13.03s19.99--
High: 47ºf @7:13 PM    Low: 44ºf @11:13 PM     Approx. Precipitation / Rain Total: in.
Time (PST)Temp. (ºf)Humidity (%)Dew Point (ºf)Barometer (inHG)Wind Speed (mph)Wind DirectionWind Gust (mph)1hr. Precip / Rain Total (in.)Snow Depth
11:13 PM44238.61-15.64sse20.86--
10:13 PM452410.41-14.77s21.72--
9:13 PM462411.26-15.64sse22.59--
8:13 PM472513.03-14.77s19.12--
7:13 PM472513.03-13.9sse19.99--
6:13 PM472513.03-13.9s20.86--
Past Weather Disclaimer Note regarding "Approx. Precipitation / Rain Total"

Past Weather Nearby

More Local Information

Bookmark and Share

Grapevine weather and traffic updates by locals

Write your own Grapevine, California report, forecast, or traffic update:

Please note by clicking on "Post" you acknowledge that you have read the Terms of Service and the Grapevine, CA report and/or forecast you are posting is in compliance with such terms. Be respectful. An inappropriate Grapevine, CA report and/or forecast will be removed by a moderator.